• Join FlightAware (Why Join?)
  • Login
  • US Flag 
Trick or treat! (Boo!!) 
07:55PM EDT


 

Airport Tracker/Info


-or-


 

Live Flight TrackerFlight Track Log ✈ SWA318 ✈ 11-Apr-2013 ✈ KPHX - KMCI

Flight Track Log - Related Links

Times and Time Zones

All times are in EDT time to prevent confusion due to time zone crossing. See the SWA318 flight status page for this flight to view local times or setup timezone preferences in your user account.

Time Position Orientation Groundspeed Altitude Reporting Facility
EDT Latitude Longitude Course Direction KTS MPH feet Rate Location/Type
03:13PM 33.3994 -112.1589 252° West 253 291 5,800  Level Albuquerque Center
03:14PM 33.3339 -112.1736 191° South 292 336 8,000 1,980 Climbing Albuquerque Center
03:15PM 33.2528 -112.1108 147° Southeast 299 344 10,000 1,860 Climbing Albuquerque Center
03:16PM 33.2681 -112.0075 80° East 342 394 11,900 2,400 Climbing Albuquerque Center
03:17PM 33.3103 -111.8978 65° Northeast 363 418 15,000 2,700 Climbing Albuquerque Center
03:18PM 33.3539 -111.7806 66° East 384 442 17,500 2,160 Climbing Albuquerque Center
03:19PM 33.3997 -111.6569 66° East 406 467 19,500 1,680 Climbing Albuquerque Center
03:20PM 33.4575 -111.4989 66° East 434 499 21,000 720 Climbing Albuquerque Center
03:21PM 33.5019 -111.3661 68° East 434 499 21,000  Level Albuquerque Center
03:22PM 33.5197 -111.2233 81° East 436 502 21,000 300 Level Albuquerque Center
03:23PM 33.5361 -111.0789 82° East 439 505 21,700 1,320 Climbing Albuquerque Center
03:24PM 33.5517 -110.9294 83° East 451 519 23,800 1,800 Climbing Albuquerque Center
03:25PM 33.5914 -110.7828 72° East 467 537 25,500 1,620 Climbing Albuquerque Center
03:26PM 33.6489 -110.6061 69° East 474 545 27,200 1,500 Climbing Albuquerque Center
03:27PM 33.6975 -110.4528 69° East 486 559 28,600 1,260 Climbing Albuquerque Center
03:28PM 33.7456 -110.3022 69° East 500 575 29,900 1,440 Climbing Albuquerque Center
03:29PM 33.7967 -110.1428 69° East 511 588 31,600 1,800 Climbing Albuquerque Center
03:30PM 33.8525 -109.9531 70° East 509 586 33,700 1,620 Climbing Albuquerque Center
03:31PM 33.8964 -109.7933 72° East 507 583 35,000 600 Climbing Albuquerque Center
03:32PM 33.9403 -109.6350 71° East 505 581 35,000  Level Albuquerque Center
03:33PM 33.9836 -109.4789 71° East 500 575 35,000  Level Albuquerque Center
03:34PM 34.0283 -109.3203 71° East 501 577 35,000  Level Albuquerque Center
03:35PM 34.0797 -109.1297 72° East 503 579 35,000  Level Albuquerque Center
03:37PM 34.1228 -108.9711 72° East 501 577 35,000  Level Albuquerque Center
03:38PM 34.1697 -108.8150 70° East 502 578 35,000  Level Albuquerque Center
03:39PM 34.2300 -108.6656 64° Northeast 501 577 35,000  Level Albuquerque Center
03:40PM 34.2900 -108.5169 64° Northeast 499 574 35,000  Level Albuquerque Center
03:41PM 34.3569 -108.3439 65° Northeast 500 575 35,000  Level Albuquerque Center
03:42PM 34.4150 -108.1969 64° Northeast 500 575 35,000  Level Albuquerque Center
03:43PM 34.4733 -108.0447 65° Northeast 499 574 35,000  Level Albuquerque Center
03:44PM 34.5322 -107.8931 65° Northeast 499 574 35,000  Level Albuquerque Center
03:45PM 34.6019 -107.7119 65° Northeast 495 570 35,000  Level Albuquerque Center
03:46PM 34.6608 -107.5608 65° Northeast 496 571 35,000  Level Albuquerque Center
03:47PM 34.7178 -107.4094 65° Northeast 494 568 35,000  Level Albuquerque Center
03:48PM 34.7744 -107.2578 66° East 496 571 35,000  Level Albuquerque Center
03:49PM 34.8317 -107.1053 65° Northeast 497 572 35,000  Level Albuquerque Center
03:50PM 34.8961 -106.9389 65° Northeast 501 577 35,000  Level Albuquerque Center
03:51PM 34.9581 -106.7700 66° East 491 565 35,000  Level Albuquerque Center
03:52PM 35.0119 -106.6214 66° East 494 568 35,000  Level Albuquerque Center
03:53PM 35.0697 -106.4664 65° Northeast 510 587 35,000  Level Albuquerque Center
03:54PM 35.1264 -106.3125 66° East 503 579 35,000  Level Albuquerque Center
03:55PM 35.1922 -106.1306 66° East 489 563 35,000  Level Albuquerque Center
03:56PM 35.2492 -105.9733 66° East 501 577 35,000  Level Albuquerque Center
03:57PM 35.3075 -105.8156 66° East 505 581 35,000  Level Albuquerque Center
03:58PM 35.3658 -105.6572 66° East 506 582 35,000 240 Level Albuquerque Center
03:59PM 35.4239 -105.4978 66° East 506 582 35,500 720 Climbing Albuquerque Center
04:00PM 35.4783 -105.3361 67° East 508 585 36,500 720 Climbing Albuquerque Center
04:01PM 35.5364 -105.1742 66° East 511 588 37,000 240 Climbing Albuquerque Center
04:02PM 35.6028 -104.9869 66° East 508 585 37,000  Level Albuquerque Center
04:03PM 35.6603 -104.8253 66° East 509 586 37,000  Level Albuquerque Center
04:04PM 35.7150 -104.6661 67° East 503 579 37,000  Level Albuquerque Center
04:05PM 35.7708 -104.5064 67° East 501 577 37,000  Level Albuquerque Center
04:06PM 35.8258 -104.3478 67° East 497 572 37,000  Level Albuquerque Center
04:07PM 35.8811 -104.1889 67° East 497 572 37,000  Level Albuquerque Center
04:09PM 35.9358 -104.0294 67° East 498 573 37,000  Level Albuquerque Center
04:10PM 35.9903 -103.8675 67° East 502 578 37,000  Level Albuquerque Center
04:11PM 36.0456 -103.7056 67° East 505 581 37,000  Level Albuquerque Center
04:12PM 36.1008 -103.5433 67° East 506 582 37,000  Level Albuquerque Center
04:13PM 36.1642 -103.3572 67° East 501 577 37,000  Level Albuquerque Center
04:14PM 36.2183 -103.1939 68° East 504 580 37,000  Level Albuquerque Center
04:15PM 36.2706 -103.0314 68° East 503 579 37,000  Level Albuquerque Center
04:16PM 36.3253 -102.8644 68° East 501 577 37,000  Level Albuquerque Center
04:17PM 36.3783 -102.7050 68° East 500 575 37,000  Level Albuquerque Center
04:18PM 36.4311 -102.5422 68° East 504 580 37,000  Level Albuquerque Center
04:19PM 36.4844 -102.3783 68° East 509 586 37,000  Level Albuquerque Center
04:20PM 36.5372 -102.2142 68° East 511 588 37,000  Level Albuquerque Center
04:21PM 36.6000 -102.0200 68° East 506 582 37,000  Level Albuquerque Center
04:22PM 36.6494 -101.8600 69° East 507 583 37,000  Level Albuquerque Center
04:23PM 36.7000 -101.7039 68° East 509 586 37,000  Level Albuquerque Center
04:24PM 36.7567 -101.5228 69° East 505 581 37,000  Level Albuquerque Center
04:25PM 36.8053 -101.3667 69° East 506 582 37,000  Level Albuquerque Center
04:26PM 36.8611 -101.1856 69° East 503 579 37,000  Level Kansas City Center
04:27PM 36.9178 -101.0064 68° East 500 575 37,000  Level Kansas City Center
04:28PM 36.9650 -100.8519 69° East 500 575 37,000  Level Kansas City Center
04:29PM 37.0194 -100.6728 69° East 497 572 37,000  Level Kansas City Center
04:30PM 37.0675 -100.5186 69° East 499 574 37,000  Level Kansas City Center
04:31PM 37.1219 -100.3372 69° East 500 575 37,000  Level Kansas City Center
04:32PM 37.1686 -100.1825 69° East 499 574 37,000  Level Kansas City Center
04:33PM 37.2228 -99.9986 70° East 504 580 37,000  Level Kansas City Center
04:34PM 37.2689 -99.8428 70° East 503 579 37,000  Level Kansas City Center
04:35PM 37.3228 -99.6583 70° East 505 581 37,000  Level Kansas City Center
04:37PM 37.3683 -99.5003 70° East 503 579 37,000  Level Kansas City Center
04:38PM 37.4214 -99.3281 69° East 509 586 37,000  Level Kansas City Center
04:39PM 37.4703 -99.1653 69° East 501 577 37,000  Level Kansas City Center
04:40PM 37.5119 -98.9967 73° East 504 580 37,000  Level Kansas City Center
04:41PM 37.5589 -98.8322 70° East 503 579 37,000  Level Kansas City Center
04:42PM 37.6153 -98.6381 70° East 494 568 37,000  Level Kansas City Center
04:43PM 37.6611 -98.4753 70° East 494 568 37,000  Level Kansas City Center
04:44PM 37.7092 -98.3142 69° East 492 566 37,000  Level Kansas City Center
04:45PM 37.7542 -98.1508 71° East 492 566 37,000  Level Kansas City Center
04:46PM 37.8003 -97.9764 71° East 483 556 37,000  Level Kansas City Center
04:47PM 37.8431 -97.8114 72° East 488 562 37,000  Level Kansas City Center
04:48PM 37.8900 -97.6511 70° East 488 562 37,000  Level Kansas City Center
04:49PM 37.9331 -97.4944 71° East 485 558 37,000  Level Kansas City Center
04:50PM 37.9853 -97.3281 68° East 485 558 37,000  Level Kansas City Center
04:51PM 38.0531 -97.1803 60° Northeast 485 558 37,000  Level Kansas City Center
04:52PM 38.1311 -97.0008 61° Northeast 484 557 37,000 -840 Level Kansas City Center
04:53PM 38.1969 -96.8508 61° Northeast 485 558 35,300 -2,580 Descending Kansas City Center
04:54PM 38.2639 -96.6969 61° Northeast 496 571 31,800 -2,760 Descending Kansas City Center
04:55PM 38.3306 -96.5417 61° Northeast 501 577 29,600 -2,400 Descending Kansas City Center
04:56PM 38.4019 -96.3767 61° Northeast 480 552 26,800 -2,460 Descending Kansas City Center
04:57PM 38.4628 -96.2347 61° Northeast 477 549 24,600 -2,280 Descending Kansas City Center
04:58PM 38.5300 -96.0703 62° Northeast 470 541 22,200 -2,160 Descending Kansas City Center
04:59PM 38.5856 -95.9406 61° Northeast 444 511 20,200 -2,100 Descending Kansas City Center
05:00PM 38.6483 -95.7953 61° Northeast 422 486 17,900 -2,040 Descending Kansas City Center
05:01PM 38.6978 -95.6781 62° Northeast 396 456 16,000 -1,920 Descending Kansas City Center
05:02PM 38.7547 -95.5403 62° Northeast 392 451 13,900 -1,980 Descending Kansas City Center
05:03PM 38.8033 -95.4281 61° Northeast 380 437 12,000 -960 Descending Kansas City Center
05:04PM 38.8772 -95.3197 49° Northeast 362 417 12,000  Level Kansas City Center
05:05PM 38.9417 -95.2278 48° Northeast 363 418 12,000  Level Kansas City Center
05:07PM 39.0169 -95.1214 48° Northeast 364 419 12,000  Level Kansas City Center
05:08PM 39.0778 -95.0350 48° Northeast 338 389 12,000  Level Kansas City Center
05:09PM 39.1347 -94.9461 50° Northeast 289 333 12,000 -420 Level Kansas City Center
05:10PM 39.1542 -94.8478 76° East 297 342 11,200 -1,020 Descending Kansas City Center
05:11PM 39.1750 -94.7356 76° East 288 331 9,900 -1,260 Descending Kansas City Center
05:12PM 39.1775 -94.6414 88° East 280 322 8,700 -1,200 Descending Kansas City Center
05:13PM 39.1708 -94.5336 95° East 271 312 7,500 -1,080 Descending Kansas City Center
05:14PM 39.1864 -94.4489 77° East 255 293 6,500 -1,440 Descending Kansas City Center
05:15PM 39.2528 -94.4297 13° North 225 259 4,600 -1,260 Descending Kansas City Center
05:16PM 39.2719 -94.4897 292° West 189 217 4,000 -720 Descending Kansas City Center
05:17PM 39.2767 -94.5567 275° West 168 193 3,200 -780 Descending Kansas City Center
05:18PM 39.2811 -94.6100 276° West 159 183 2,400 -840 Descending Kansas City Center
05:19PM 39.2856 -94.6642 276° West 138 159 1,500 -720 Descending Kansas City Center
05:20PM 39.2892 -94.7142 275° West 137 158 1,000 -480 Descending Kansas City Center